CCA4580 RJTT-CYVR
Flight info
| Callsign | CCA4580 |
|---|---|
| Flight time | N/A |
| Altitude | 33000 |
| Route | INUBO Y808 PUTER/N0488F340 A590 PUGAL/N0481F350 A590 PINSO DCT AMOND A342 CDB/N0484F370 DCT 55N160W 54N150W 52N140W DCT NUDGE DCT POWOL WHSLR7 |
| Aircraft | A346/H-SDE2E3FGHIJ3J4J5M1RWXY/LB1D1 |
Departure
| Time | 2026-05-07 18:00 |
|---|---|
| Airport | Tokyo Haneda International Airport (RJTT) |
Arrival
| Time | N/A |
|---|---|
| Airport | Vancouver International Airport (CYVR) |
| Time | Latitude | Longitude | Altitude | Speed | Heading |
|---|---|---|---|---|---|
| 2026-05-07 17:46 | 35.54642 | 139.76985 | 53 ft | 0 kts | 240° |
| 2026-05-07 17:47 | 35.54649 | 139.76999 | 53 ft | 2 kts | 240° |
| 2026-05-07 17:48 | 35.54659 | 139.77022 | 53 ft | 2 kts | 245° |
| 2026-05-07 17:48 | 35.54663 | 139.77033 | 53 ft | 2 kts | 256° |
| 2026-05-07 17:48 | 35.54665 | 139.77052 | 53 ft | 2 kts | 270° |
| 2026-05-07 17:48 | 35.54664 | 139.77071 | 53 ft | 2 kts | 283° |
| 2026-05-07 17:49 | 35.54659 | 139.77089 | 53 ft | 2 kts | 296° |
| 2026-05-07 17:49 | 35.54651 | 139.77106 | 53 ft | 2 kts | 309° |
| 2026-05-07 17:49 | 35.54640 | 139.77118 | 53 ft | 2 kts | 322° |
| 2026-05-07 17:49 | 35.54633 | 139.77125 | 53 ft | 1 kts | 330° |
| 2026-05-07 17:50 | 35.54630 | 139.77127 | 53 ft | 0 kts | 330° |
| 2026-05-07 17:50 | 35.54629 | 139.77127 | 53 ft | 0 kts | 330° |
| 2026-05-07 17:51 | 35.54634 | 139.77124 | 53 ft | 2 kts | 330° |
| 2026-05-07 17:52 | 35.54654 | 139.77110 | 53 ft | 4 kts | 329° |
| 2026-05-07 17:52 | 35.54694 | 139.77094 | 53 ft | 7 kts | 1° |
| 2026-05-07 17:52 | 35.54728 | 139.77112 | 53 ft | 8 kts | 33° |
| 2026-05-07 17:52 | 35.54769 | 139.77176 | 53 ft | 10 kts | 57° |
| 2026-05-07 17:53 | 35.54808 | 139.77258 | 53 ft | 9 kts | 60° |
| 2026-05-07 17:53 | 35.54864 | 139.77307 | 53 ft | 11 kts | 3° |
| 2026-05-07 17:53 | 35.54942 | 139.77274 | 53 ft | 12 kts | 332° |
| 2026-05-07 17:53 | 35.55050 | 139.77199 | 53 ft | 14 kts | 330° |
| 2026-05-07 17:54 | 35.55109 | 139.77158 | 53 ft | 14 kts | 330° |
| 2026-05-07 17:54 | 35.55200 | 139.77094 | 53 ft | 15 kts | 330° |
| 2026-05-07 17:54 | 35.55297 | 139.77025 | 53 ft | 16 kts | 330° |
| 2026-05-07 17:54 | 35.55396 | 139.76955 | 53 ft | 16 kts | 330° |
| 2026-05-07 17:55 | 35.55475 | 139.76916 | 53 ft | 12 kts | 4° |
| 2026-05-07 17:55 | 35.55559 | 139.76964 | 53 ft | 14 kts | 33° |
| 2026-05-07 17:55 | 35.55644 | 139.77035 | 53 ft | 15 kts | 35° |
| 2026-05-07 17:55 | 35.55732 | 139.77113 | 53 ft | 15 kts | 36° |
| 2026-05-07 17:56 | 35.55855 | 139.77220 | 53 ft | 16 kts | 36° |
| 2026-05-07 17:56 | 35.55903 | 139.77271 | 53 ft | 12 kts | 54° |
| 2026-05-07 17:56 | 35.55957 | 139.77362 | 53 ft | 13 kts | 54° |
| 2026-05-07 17:56 | 35.56026 | 139.77501 | 53 ft | 14 kts | 61° |
| 2026-05-07 17:57 | 35.56060 | 139.77576 | 53 ft | 15 kts | 60° |
| 2026-05-07 17:57 | 35.56115 | 139.77693 | 53 ft | 16 kts | 60° |
| 2026-05-07 17:57 | 35.56173 | 139.77815 | 53 ft | 16 kts | 60° |
| 2026-05-07 17:57 | 35.56253 | 139.77983 | 53 ft | 17 kts | 59° |
| 2026-05-07 17:58 | 35.56295 | 139.78070 | 53 ft | 17 kts | 59° |
| 2026-05-07 17:58 | 35.56378 | 139.78245 | 53 ft | 17 kts | 60° |
| 2026-05-07 17:58 | 35.56421 | 139.78334 | 53 ft | 17 kts | 60° |
| 2026-05-07 17:58 | 35.56484 | 139.78467 | 53 ft | 18 kts | 60° |
| 2026-05-07 17:59 | 35.56541 | 139.78589 | 53 ft | 13 kts | 60° |
| 2026-05-07 17:59 | 35.56552 | 139.78680 | 53 ft | 11 kts | 130° |
| 2026-05-07 17:59 | 35.56308 | 139.78847 | 53 ft | 69 kts | 151° |
| 2026-05-07 17:59 | 35.55935 | 139.79108 | 53 ft | 112 kts | 150° |
| 2026-05-07 18:00 | 35.55077 | 139.79719 | 53 ft | 167 kts | 150° |
| 2026-05-07 18:00 | 35.53953 | 139.80530 | 198 ft | 197 kts | 152° |
| 2026-05-07 18:00 | 35.52800 | 139.81459 | 810 ft | 198 kts | 143° |
| 2026-05-07 18:00 | 35.51776 | 139.82638 | 1460 ft | 203 kts | 137° |
| 2026-05-07 18:01 | 35.50799 | 139.83891 | 2139 ft | 205 kts | 136° |
| 2026-05-07 18:01 | 35.49488 | 139.85609 | 3021 ft | 208 kts | 131° |
| 2026-05-07 18:01 | 35.49029 | 139.86661 | 3408 ft | 212 kts | 105° |
| 2026-05-07 18:01 | 35.48865 | 139.89137 | 4210 ft | 217 kts | 93° |
| 2026-05-07 18:02 | 35.48828 | 139.92375 | 4751 ft | 235 kts | 92° |
| 2026-05-07 18:02 | 35.48804 | 139.94469 | 4980 ft | 251 kts | 92° |
| 2026-05-07 18:02 | 35.48771 | 139.96751 | 5264 ft | 267 kts | 92° |
| 2026-05-07 18:03 | 35.48719 | 139.99966 | 5783 ft | 283 kts | 91° |
| 2026-05-07 18:03 | 35.48691 | 140.01630 | 6190 ft | 285 kts | 91° |
| 2026-05-07 18:03 | 35.48647 | 140.04120 | 6839 ft | 286 kts | 91° |
| 2026-05-07 18:03 | 35.48603 | 140.06570 | 7448 ft | 289 kts | 91° |
| 2026-05-07 18:04 | 35.48558 | 140.09078 | 8053 ft | 291 kts | 91° |
| 2026-05-07 18:04 | 35.48495 | 140.12436 | 8847 ft | 294 kts | 91° |
| 2026-05-07 18:04 | 35.48463 | 140.14117 | 9236 ft | 296 kts | 91° |
| 2026-05-07 18:04 | 35.48414 | 140.16679 | 9816 ft | 299 kts | 91° |
| 2026-05-07 18:05 | 35.48363 | 140.19263 | 10342 ft | 303 kts | 91° |
| 2026-05-07 18:05 | 35.48292 | 140.22876 | 10715 ft | 323 kts | 91° |
| 2026-05-07 18:05 | 35.48252 | 140.24860 | 10909 ft | 333 kts | 91° |
| 2026-05-07 18:05 | 35.48192 | 140.27834 | 11184 ft | 348 kts | 91° |
| 2026-05-07 18:06 | 35.48128 | 140.30905 | 11456 ft | 362 kts | 91° |
| 2026-05-07 18:06 | 35.48061 | 140.34145 | 11726 ft | 377 kts | 91° |
| 2026-05-07 18:06 | 35.47989 | 140.37515 | 12016 ft | 390 kts | 91° |
| 2026-05-07 18:06 | 35.47916 | 140.40913 | 12516 ft | 396 kts | 91° |
| 2026-05-07 18:07 | 35.47839 | 140.44412 | 13127 ft | 400 kts | 91° |
| 2026-05-07 18:07 | 35.47761 | 140.47902 | 13689 ft | 404 kts | 91° |
| 2026-05-07 18:07 | 35.47683 | 140.51387 | 14214 ft | 409 kts | 91° |
| 2026-05-07 18:07 | 35.47575 | 140.56107 | 14908 ft | 415 kts | 91° |
| 2026-05-07 18:08 | 35.47491 | 140.59738 | 15425 ft | 419 kts | 91° |
| 2026-05-07 18:08 | 35.47434 | 140.62163 | 15762 ft | 422 kts | 91° |
| 2026-05-07 18:08 | 35.47319 | 140.67018 | 16416 ft | 428 kts | 92° |
| 2026-05-07 18:08 | 35.47260 | 140.69464 | 16734 ft | 431 kts | 92° |
| 2026-05-07 18:09 | 35.47170 | 140.73178 | 17209 ft | 435 kts | 92° |
| 2026-05-07 18:09 | 35.47077 | 140.76953 | 17679 ft | 439 kts | 92° |
| 2026-05-07 18:09 | 35.46984 | 140.80699 | 18127 ft | 443 kts | 92° |
| 2026-05-07 18:09 | 35.46887 | 140.84541 | 18574 ft | 447 kts | 92° |
| 2026-05-07 18:10 | 35.46789 | 140.88402 | 19014 ft | 451 kts | 92° |
| 2026-05-07 18:10 | 35.46690 | 140.92273 | 19438 ft | 455 kts | 92° |
| 2026-05-07 18:10 | 35.46589 | 140.96153 | 19840 ft | 459 kts | 92° |
| 2026-05-07 18:10 | 35.46485 | 141.00134 | 20238 ft | 464 kts | 92° |
| 2026-05-07 18:11 | 35.46379 | 141.04102 | 20622 ft | 468 kts | 92° |
| 2026-05-07 18:11 | 35.46269 | 141.08160 | 21011 ft | 472 kts | 92° |
| 2026-05-07 18:11 | 35.46157 | 141.12233 | 21398 ft | 476 kts | 92° |
| 2026-05-07 18:11 | 35.46041 | 141.16327 | 21781 ft | 480 kts | 92° |
| 2026-05-07 18:12 | 35.45923 | 141.20456 | 22164 ft | 484 kts | 92° |
| 2026-05-07 18:12 | 35.45804 | 141.24576 | 22541 ft | 487 kts | 92° |
| 2026-05-07 18:12 | 35.45681 | 141.28804 | 22916 ft | 491 kts | 92° |
| 2026-05-07 18:12 | 35.45558 | 141.33008 | 23282 ft | 494 kts | 92° |
| 2026-05-07 18:13 | 35.45390 | 141.38646 | 23762 ft | 498 kts | 92° |
| 2026-05-07 18:13 | 35.45260 | 141.42975 | 24126 ft | 502 kts | 92° |
| 2026-05-07 18:13 | 35.45174 | 141.45830 | 24358 ft | 504 kts | 92° |
| 2026-05-07 18:13 | 35.44997 | 141.51585 | 24816 ft | 508 kts | 92° |
| 2026-05-07 18:14 | 35.44907 | 141.54469 | 25040 ft | 510 kts | 92° |
| 2026-05-07 18:14 | 35.44722 | 141.60350 | 25489 ft | 514 kts | 92° |
| 2026-05-07 18:14 | 35.44629 | 141.63284 | 25709 ft | 516 kts | 92° |
| 2026-05-07 18:14 | 35.44485 | 141.67750 | 26027 ft | 519 kts | 92° |
| 2026-05-07 18:15 | 35.44342 | 141.72159 | 26319 ft | 522 kts | 92° |
| 2026-05-07 18:15 | 35.44203 | 141.76672 | 26618 ft | 525 kts | 91° |
| 2026-05-07 18:15 | 35.44136 | 141.82698 | 27021 ft | 528 kts | 90° |
| 2026-05-07 18:15 | 35.44127 | 141.85738 | 27217 ft | 530 kts | 90° |
| 2026-05-07 18:16 | 35.44114 | 141.90269 | 27497 ft | 533 kts | 89° |
| 2026-05-07 18:16 | 35.44097 | 141.94841 | 27778 ft | 536 kts | 90° |
| 2026-05-07 18:16 | 35.44071 | 141.99440 | 28062 ft | 538 kts | 90° |
| 2026-05-07 18:16 | 35.44038 | 142.04063 | 28396 ft | 539 kts | 90° |
| 2026-05-07 18:17 | 35.43986 | 142.10249 | 28928 ft | 538 kts | 90° |
| 2026-05-07 18:17 | 35.43959 | 142.13313 | 29191 ft | 538 kts | 89° |
| 2026-05-07 18:17 | 35.43916 | 142.17912 | 29565 ft | 538 kts | 89° |
| 2026-05-07 18:17 | 35.43870 | 142.22525 | 29922 ft | 538 kts | 89° |
| 2026-05-07 18:18 | 35.43824 | 142.27112 | 30273 ft | 538 kts | 89° |
| 2026-05-07 18:18 | 35.43759 | 142.33281 | 30740 ft | 538 kts | 89° |
| 2026-05-07 18:18 | 35.43725 | 142.36307 | 30963 ft | 538 kts | 89° |
| 2026-05-07 18:18 | 35.43656 | 142.42467 | 31375 ft | 539 kts | 89° |
| 2026-05-07 18:19 | 35.43620 | 142.45560 | 31550 ft | 540 kts | 89° |
| 2026-05-07 18:19 | 35.43564 | 142.50180 | 31793 ft | 541 kts | 89° |
| 2026-05-07 18:19 | 35.43507 | 142.54796 | 32023 ft | 543 kts | 89° |
| 2026-05-07 18:19 | 35.43449 | 142.59502 | 32249 ft | 545 kts | 88° |
| 2026-05-07 18:20 | 35.43389 | 142.64154 | 32483 ft | 546 kts | 88° |
| 2026-05-07 18:20 | 35.43328 | 142.68849 | 32689 ft | 547 kts | 89° |
| 2026-05-07 18:20 | 35.43264 | 142.73555 | 32830 ft | 549 kts | 89° |
| 2026-05-07 18:21 | 35.43128 | 142.82883 | 32840 ft | 549 kts | 89° |
| 2026-05-07 18:21 | 35.42984 | 142.92316 | 32842 ft | 547 kts | 89° |
| 2026-05-07 18:22 | 35.42832 | 143.01694 | 32842 ft | 545 kts | 89° |
| 2026-05-07 18:22 | 35.42676 | 143.10991 | 32841 ft | 544 kts | 89° |
| 2026-05-07 18:23 | 35.42565 | 143.20306 | 32836 ft | 542 kts | 84° |
| 2026-05-07 18:23 | 35.43068 | 143.24904 | 32837 ft | 537 kts | 72° |
| 2026-05-07 18:23 | 35.44218 | 143.29237 | 32839 ft | 529 kts | 61° |
| 2026-05-07 18:23 | 35.46645 | 143.34367 | 32840 ft | 516 kts | 46° |
| 2026-05-07 18:24 | 35.49001 | 143.37595 | 32841 ft | 506 kts | 36° |
| 2026-05-07 18:24 | 35.53706 | 143.41745 | 32845 ft | 492 kts | 22° |
| 2026-05-07 18:25 | 35.59685 | 143.45927 | 32842 ft | 493 kts | 22° |
| 2026-05-07 18:25 | 35.65638 | 143.50127 | 32841 ft | 493 kts | 22° |
| 2026-05-07 18:26 | 35.72603 | 143.55131 | 32840 ft | 494 kts | 22° |
| 2026-05-07 18:26 | 35.77546 | 143.58707 | 32841 ft | 494 kts | 22° |
| 2026-05-07 18:27 | 35.83524 | 143.63034 | 32840 ft | 494 kts | 22° |
| 2026-05-07 18:27 | 35.89438 | 143.67333 | 32837 ft | 495 kts | 23° |
| 2026-05-07 18:28 | 35.95432 | 143.71696 | 32840 ft | 495 kts | 23° |
| 2026-05-07 18:28 | 36.01384 | 143.76036 | 32840 ft | 495 kts | 23° |
| 2026-05-07 18:29 | 36.07357 | 143.80396 | 32842 ft | 502 kts | 23° |
| 2026-05-07 18:29 | 36.13464 | 143.84865 | 32844 ft | 510 kts | 24° |
| 2026-05-07 18:30 | 36.19549 | 143.89333 | 32841 ft | 512 kts | 24° |
| 2026-05-07 18:30 | 36.25708 | 143.93863 | 32840 ft | 512 kts | 24° |
| 2026-05-07 18:31 | 36.31809 | 143.98352 | 32840 ft | 512 kts | 24° |
| 2026-05-07 18:31 | 36.38972 | 144.03638 | 32841 ft | 512 kts | 24° |
| 2026-05-07 18:32 | 36.44053 | 144.07394 | 32841 ft | 511 kts | 24° |
| 2026-05-07 18:32 | 36.50133 | 144.11899 | 32840 ft | 512 kts | 24° |
| 2026-05-07 18:33 | 36.56269 | 144.16454 | 32840 ft | 512 kts | 24° |
| 2026-05-07 18:33 | 36.62381 | 144.20999 | 32840 ft | 512 kts | 24° |
| 2026-05-07 18:34 | 36.68473 | 144.25539 | 32840 ft | 512 kts | 24° |
| 2026-05-07 18:34 | 36.74569 | 144.30092 | 32841 ft | 512 kts | 24° |
| 2026-05-07 18:35 | 36.80666 | 144.34651 | 32840 ft | 512 kts | 24° |
| 2026-05-07 18:35 | 36.86742 | 144.39206 | 32840 ft | 512 kts | 24° |
| 2026-05-07 18:36 | 36.92832 | 144.43785 | 32841 ft | 512 kts | 24° |
| 2026-05-07 18:36 | 36.98935 | 144.48386 | 32839 ft | 513 kts | 24° |
| 2026-05-07 18:37 | 37.05053 | 144.53006 | 32838 ft | 518 kts | 23° |
| 2026-05-07 18:37 | 37.11224 | 144.57672 | 32838 ft | 524 kts | 23° |
| 2026-05-07 18:38 | 37.17492 | 144.62419 | 32840 ft | 527 kts | 23° |
| 2026-05-07 18:38 | 37.23754 | 144.67172 | 32836 ft | 528 kts | 24° |
| 2026-05-07 18:39 | 37.30034 | 144.71953 | 32840 ft | 529 kts | 24° |
| 2026-05-07 18:39 | 37.36318 | 144.76747 | 32841 ft | 528 kts | 24° |
| 2026-05-07 18:40 | 37.42564 | 144.81520 | 32840 ft | 529 kts | 24° |
| 2026-05-07 18:40 | 37.48837 | 144.86320 | 32841 ft | 528 kts | 24° |
| 2026-05-07 18:41 | 37.55133 | 144.91150 | 32841 ft | 528 kts | 24° |
| 2026-05-07 18:41 | 37.61372 | 144.95944 | 32841 ft | 528 kts | 24° |
| 2026-05-07 18:42 | 37.67641 | 145.00772 | 32841 ft | 527 kts | 24° |
| 2026-05-07 18:42 | 37.73885 | 145.05589 | 32841 ft | 527 kts | 24° |
| 2026-05-07 18:43 | 37.80103 | 145.10399 | 32841 ft | 526 kts | 24° |
| 2026-05-07 18:43 | 37.86315 | 145.15208 | 33053 ft | 527 kts | 24° |
| 2026-05-07 18:43 | 37.90469 | 145.18436 | 33558 ft | 521 kts | 24° |
| 2026-05-07 18:44 | 37.92497 | 145.20015 | 33769 ft | 518 kts | 24° |
| 2026-05-07 18:44 | 37.99689 | 145.25604 | 33840 ft | 520 kts | 23° |
| 2026-05-07 18:45 | 38.04812 | 145.29594 | 33841 ft | 520 kts | 23° |
| 2026-05-07 18:45 | 38.10963 | 145.34398 | 33841 ft | 520 kts | 24° |
| 2026-05-07 18:46 | 38.17099 | 145.39203 | 33841 ft | 521 kts | 24° |
| 2026-05-07 18:46 | 38.23244 | 145.44023 | 33841 ft | 521 kts | 24° |
| 2026-05-07 18:47 | 38.29392 | 145.48895 | 33841 ft | 523 kts | 25° |
| 2026-05-07 18:47 | 38.35302 | 145.54427 | 33841 ft | 530 kts | 32° |
| 2026-05-07 18:48 | 38.40797 | 145.60672 | 33842 ft | 534 kts | 35° |
| 2026-05-07 18:48 | 38.47134 | 145.68199 | 33835 ft | 534 kts | 36° |
| 2026-05-07 18:49 | 38.51688 | 145.73612 | 33833 ft | 534 kts | 36° |
| 2026-05-07 18:49 | 38.57090 | 145.80023 | 33826 ft | 534 kts | 36° |
| 2026-05-07 18:50 | 38.63425 | 145.87547 | 33818 ft | 534 kts | 36° |
| 2026-05-07 18:50 | 38.68861 | 145.94017 | 33815 ft | 534 kts | 36° |
| 2026-05-07 18:51 | 38.73377 | 145.99405 | 33813 ft | 534 kts | 36° |
| 2026-05-07 18:51 | 38.78791 | 146.05878 | 33813 ft | 534 kts | 36° |
| 2026-05-07 18:52 | 38.84209 | 146.12364 | 33813 ft | 534 kts | 36° |
| 2026-05-07 18:52 | 38.89605 | 146.18839 | 33812 ft | 535 kts | 36° |
| 2026-05-07 18:53 | 38.95051 | 146.25400 | 33811 ft | 538 kts | 35° |
| 2026-05-07 18:53 | 39.00524 | 146.31998 | 33810 ft | 544 kts | 34° |
| 2026-05-07 18:54 | 39.06967 | 146.39777 | 33811 ft | 550 kts | 34° |
| 2026-05-07 18:54 | 39.11606 | 146.45390 | 33812 ft | 550 kts | 34° |
| 2026-05-07 18:55 | 39.17188 | 146.52162 | 33813 ft | 550 kts | 34° |
| 2026-05-07 18:55 | 39.22730 | 146.58903 | 33812 ft | 551 kts | 34° |
| 2026-05-07 18:56 | 39.28302 | 146.65692 | 33811 ft | 551 kts | 35° |
| 2026-05-07 18:56 | 39.34806 | 146.73642 | 33811 ft | 551 kts | 35° |
| 2026-05-07 18:57 | 39.39433 | 146.79314 | 33813 ft | 551 kts | 35° |
| 2026-05-07 18:57 | 39.45895 | 146.87245 | 33813 ft | 552 kts | 35° |
| 2026-05-07 18:58 | 39.50487 | 146.92900 | 33814 ft | 550 kts | 35° |
| 2026-05-07 18:58 | 39.56043 | 146.99753 | 33814 ft | 548 kts | 35° |
| 2026-05-07 18:59 | 39.61499 | 147.06503 | 33813 ft | 545 kts | 35° |
| 2026-05-07 18:59 | 39.66959 | 147.13264 | 33812 ft | 543 kts | 35° |
| 2026-05-07 19:00 | 39.72404 | 147.20024 | 33812 ft | 541 kts | 35° |
| 2026-05-07 19:00 | 39.77813 | 147.26756 | 33811 ft | 540 kts | 34° |
| 2026-05-07 19:01 | 39.83236 | 147.33517 | 33812 ft | 541 kts | 35° |
| 2026-05-07 19:01 | 39.88653 | 147.40297 | 33812 ft | 541 kts | 35° |
| 2026-05-07 19:02 | 39.94059 | 147.47070 | 33813 ft | 541 kts | 35° |
| 2026-05-07 19:02 | 39.99467 | 147.53862 | 33813 ft | 541 kts | 34° |
| 2026-05-07 19:03 | 40.04857 | 147.60645 | 33813 ft | 542 kts | 34° |
| 2026-05-07 19:03 | 40.10254 | 147.67458 | 33807 ft | 541 kts | 35° |
| 2026-05-07 19:04 | 40.15674 | 147.74310 | 33811 ft | 542 kts | 36° |
| 2026-05-07 19:04 | 40.21085 | 147.81175 | 33812 ft | 541 kts | 35° |
| 2026-05-07 19:05 | 40.26460 | 147.88005 | 33812 ft | 541 kts | 35° |
| 2026-05-07 19:05 | 40.31854 | 147.94878 | 33812 ft | 541 kts | 35° |
| 2026-05-07 19:06 | 40.37229 | 148.01737 | 33812 ft | 542 kts | 36° |
| 2026-05-07 19:06 | 40.45299 | 148.12073 | 33814 ft | 542 kts | 36° |
| 2026-05-07 19:07 | 40.50684 | 148.18991 | 33813 ft | 542 kts | 36° |
| 2026-05-07 19:07 | 40.56044 | 148.25888 | 33813 ft | 542 kts | 36° |
| 2026-05-07 19:08 | 40.61418 | 148.32825 | 33814 ft | 543 kts | 36° |
| 2026-05-07 19:08 | 40.66775 | 148.39758 | 33812 ft | 542 kts | 35° |
| 2026-05-07 19:09 | 40.72155 | 148.46730 | 33811 ft | 542 kts | 36° |
| 2026-05-07 19:09 | 40.77511 | 148.53690 | 33813 ft | 542 kts | 36° |
| 2026-05-07 19:10 | 40.82872 | 148.60677 | 33813 ft | 543 kts | 35° |
| 2026-05-07 19:10 | 40.88205 | 148.67645 | 33806 ft | 542 kts | 36° |
| 2026-05-07 19:11 | 40.94457 | 148.75833 | 33813 ft | 542 kts | 36° |
| 2026-05-07 19:11 | 40.99818 | 148.82857 | 33812 ft | 543 kts | 37° |
| 2026-05-07 19:12 | 41.04289 | 148.88716 | 33812 ft | 546 kts | 39° |
| 2026-05-07 19:12 | 41.09675 | 148.95831 | 33815 ft | 545 kts | 41° |
| 2026-05-07 19:13 | 41.15006 | 149.02885 | 33813 ft | 543 kts | 41° |
| 2026-05-07 19:13 | 41.21217 | 149.11139 | 33813 ft | 543 kts | 41° |
| 2026-05-07 19:14 | 41.25665 | 149.17055 | 33811 ft | 542 kts | 41° |
| 2026-05-07 19:14 | 41.30978 | 149.24138 | 33813 ft | 542 kts | 41° |
| 2026-05-07 19:15 | 41.37147 | 149.32378 | 33813 ft | 543 kts | 41° |
| 2026-05-07 19:15 | 41.41576 | 149.38310 | 33813 ft | 543 kts | 41° |
| 2026-05-07 19:16 | 41.46907 | 149.45468 | 33813 ft | 543 kts | 41° |
| 2026-05-07 19:16 | 41.52214 | 149.52612 | 33812 ft | 543 kts | 41° |
| 2026-05-07 19:17 | 41.57488 | 149.59731 | 33813 ft | 543 kts | 41° |
| 2026-05-07 19:17 | 41.63685 | 149.68114 | 33810 ft | 543 kts | 41° |
| 2026-05-07 19:18 | 41.68103 | 149.74104 | 33812 ft | 543 kts | 42° |
| 2026-05-07 19:18 | 41.73370 | 149.81262 | 33813 ft | 543 kts | 42° |
| 2026-05-07 19:19 | 41.78658 | 149.88470 | 33813 ft | 543 kts | 42° |
| 2026-05-07 19:19 | 41.83969 | 149.95728 | 33812 ft | 543 kts | 42° |
| 2026-05-07 19:20 | 41.90091 | 150.04112 | 33813 ft | 543 kts | 42° |
| 2026-05-07 19:20 | 41.94509 | 150.10179 | 33813 ft | 543 kts | 42° |
| 2026-05-07 19:21 | 41.99775 | 150.17433 | 33812 ft | 543 kts | 42° |
| 2026-05-07 19:21 | 42.05024 | 150.24674 | 33813 ft | 543 kts | 41° |
| 2026-05-07 19:22 | 42.10280 | 150.31940 | 33812 ft | 543 kts | 41° |
| 2026-05-07 19:22 | 42.16404 | 150.40439 | 33813 ft | 542 kts | 41° |
| 2026-05-07 19:23 | 42.21653 | 150.47739 | 33813 ft | 543 kts | 41° |
| 2026-05-07 19:23 | 42.26875 | 150.55022 | 33814 ft | 543 kts | 41° |
| 2026-05-07 19:24 | 42.32116 | 150.62350 | 33814 ft | 543 kts | 41° |
| 2026-05-07 19:24 | 42.36467 | 150.68449 | 33809 ft | 543 kts | 42° |
| 2026-05-07 19:25 | 42.41695 | 150.75794 | 33812 ft | 543 kts | 43° |
| 2026-05-07 19:25 | 42.47794 | 150.84386 | 33812 ft | 543 kts | 42° |
| 2026-05-07 19:26 | 42.52166 | 150.90559 | 33812 ft | 543 kts | 43° |
| 2026-05-07 19:26 | 42.57387 | 150.97951 | 33811 ft | 543 kts | 42° |
| 2026-05-07 19:27 | 42.62604 | 151.05371 | 33813 ft | 545 kts | 41° |
| 2026-05-07 19:27 | 42.68668 | 151.14011 | 33812 ft | 546 kts | 40° |
| 2026-05-07 19:28 | 42.73027 | 151.20233 | 33813 ft | 547 kts | 40° |
| 2026-05-07 19:28 | 42.78288 | 151.27750 | 33813 ft | 547 kts | 40° |
| 2026-05-07 19:29 | 42.83496 | 151.35210 | 33812 ft | 547 kts | 40° |
| 2026-05-07 19:29 | 42.89579 | 151.43953 | 33812 ft | 547 kts | 40° |
| 2026-05-07 19:30 | 42.93936 | 151.50243 | 33813 ft | 547 kts | 40° |
| 2026-05-07 19:30 | 42.99153 | 151.57790 | 33812 ft | 546 kts | 39° |
| 2026-05-07 19:31 | 43.04324 | 151.65288 | 33811 ft | 544 kts | 39° |
| 2026-05-07 19:31 | 43.09547 | 151.72870 | 33811 ft | 545 kts | 39° |
| 2026-05-07 19:32 | 43.14715 | 151.80392 | 33813 ft | 545 kts | 39° |
| 2026-05-07 19:32 | 43.19886 | 151.87946 | 33813 ft | 545 kts | 39° |
| 2026-05-07 19:33 | 43.25059 | 151.95525 | 33813 ft | 544 kts | 39° |
| 2026-05-07 19:33 | 43.31104 | 152.04405 | 33813 ft | 545 kts | 39° |
| 2026-05-07 19:34 | 43.35400 | 152.10733 | 33814 ft | 545 kts | 39° |
| 2026-05-07 19:34 | 43.40549 | 152.18338 | 33813 ft | 545 kts | 39° |
| 2026-05-07 19:35 | 43.45689 | 152.25948 | 33812 ft | 545 kts | 40° |
| 2026-05-07 19:35 | 43.51697 | 152.34869 | 33813 ft | 545 kts | 39° |
| 2026-05-07 19:36 | 43.56002 | 152.41280 | 33813 ft | 545 kts | 40° |
| 2026-05-07 19:36 | 43.61991 | 152.50220 | 33812 ft | 545 kts | 40° |
| 2026-05-07 19:37 | 43.66278 | 152.56641 | 33813 ft | 544 kts | 40° |
| 2026-05-07 19:37 | 43.71393 | 152.64317 | 33813 ft | 545 kts | 39° |
| 2026-05-07 19:38 | 43.76497 | 152.71995 | 33811 ft | 545 kts | 40° |
| 2026-05-07 19:38 | 43.81654 | 152.79776 | 33813 ft | 545 kts | 40° |
| 2026-05-07 19:39 | 43.87616 | 152.88800 | 33813 ft | 546 kts | 40° |
| 2026-05-07 19:39 | 43.91853 | 152.95239 | 33813 ft | 545 kts | 40° |
| 2026-05-07 19:40 | 43.96949 | 153.03005 | 33813 ft | 543 kts | 39° |
| 2026-05-07 19:40 | 44.02019 | 153.10745 | 33814 ft | 540 kts | 38° |
| 2026-05-07 19:41 | 44.07054 | 153.18442 | 33813 ft | 539 kts | 38° |
| 2026-05-07 19:41 | 44.12065 | 153.26114 | 33814 ft | 539 kts | 38° |
| 2026-05-07 19:42 | 44.17125 | 153.33890 | 33813 ft | 539 kts | 38° |
| 2026-05-07 19:42 | 44.22140 | 153.41623 | 33813 ft | 539 kts | 38° |
| 2026-05-07 19:43 | 44.27169 | 153.49403 | 33813 ft | 539 kts | 38° |
| 2026-05-07 19:43 | 44.32186 | 153.57184 | 33813 ft | 539 kts | 38° |
| 2026-05-07 19:44 | 44.37186 | 153.64961 | 33813 ft | 539 kts | 38° |
| 2026-05-07 19:44 | 44.43006 | 153.74037 | 33811 ft | 540 kts | 39° |
| 2026-05-07 19:45 | 44.47183 | 153.80574 | 33812 ft | 540 kts | 39° |
| 2026-05-07 19:45 | 44.52182 | 153.88415 | 33811 ft | 540 kts | 39° |
| 2026-05-07 19:46 | 44.58030 | 153.97617 | 33789 ft | 540 kts | 39° |
| 2026-05-07 19:46 | 44.63018 | 154.05487 | 33766 ft | 539 kts | 39° |
| 2026-05-07 19:47 | 44.67170 | 154.12056 | 33750 ft | 539 kts | 39° |
| 2026-05-07 19:47 | 44.72150 | 154.19957 | 33739 ft | 540 kts | 39° |
| 2026-05-07 19:48 | 44.77125 | 154.27859 | 33736 ft | 541 kts | 39° |
| 2026-05-07 19:48 | 44.82951 | 154.37155 | 33732 ft | 541 kts | 39° |
| 2026-05-07 19:49 | 44.87075 | 154.43773 | 33731 ft | 542 kts | 39° |
| 2026-05-07 19:49 | 44.91993 | 154.51822 | 33731 ft | 542 kts | 40° |
| 2026-05-07 19:50 | 44.96880 | 154.59903 | 33730 ft | 541 kts | 40° |
| 2026-05-07 19:50 | 45.01749 | 154.67982 | 33849 ft | 541 kts | 41° |
| 2026-05-07 19:51 | 45.04995 | 154.73377 | 33974 ft | 541 kts | 41° |
| 2026-05-07 19:51 | 45.06639 | 154.76111 | 34060 ft | 540 kts | 41° |
| 2026-05-07 19:51 | 45.09850 | 154.81451 | 34231 ft | 538 kts | 42° |
| 2026-05-07 19:51 | 45.11474 | 154.84149 | 34319 ft | 538 kts | 43° |
| 2026-05-07 19:52 | 45.13902 | 154.88188 | 34449 ft | 537 kts | 43° |
| 2026-05-07 19:52 | 45.17134 | 154.93576 | 34621 ft | 535 kts | 44° |
| 2026-05-07 19:52 | 45.21943 | 155.01614 | 34728 ft | 533 kts | 44° |
| 2026-05-07 19:53 | 45.26738 | 155.09656 | 34731 ft | 530 kts | 45° |
| 2026-05-07 19:53 | 45.30705 | 155.16339 | 34731 ft | 531 kts | 45° |
| 2026-05-07 19:54 | 45.35508 | 155.24445 | 34731 ft | 530 kts | 45° |
| 2026-05-07 19:54 | 45.40268 | 155.32497 | 34731 ft | 530 kts | 45° |
| 2026-05-07 19:55 | 45.45773 | 155.41836 | 34731 ft | 530 kts | 45° |
| 2026-05-07 19:55 | 45.50532 | 155.49934 | 34731 ft | 531 kts | 45° |
| 2026-05-07 19:56 | 45.55274 | 155.58028 | 34731 ft | 530 kts | 45° |
| 2026-05-07 19:56 | 45.60016 | 155.66141 | 34729 ft | 530 kts | 45° |
| 2026-05-07 19:57 | 45.63945 | 155.72885 | 34730 ft | 531 kts | 45° |
| 2026-05-07 19:57 | 45.68684 | 155.81039 | 34731 ft | 531 kts | 45° |
| 2026-05-07 19:58 | 45.74203 | 155.90569 | 34732 ft | 531 kts | 45° |
| 2026-05-07 19:58 | 45.78912 | 155.98720 | 34731 ft | 531 kts | 45° |
| 2026-05-07 19:59 | 45.82848 | 156.05554 | 34732 ft | 531 kts | 45° |
| 2026-05-07 19:59 | 45.88339 | 156.15115 | 34731 ft | 531 kts | 45° |
| 2026-05-07 20:00 | 45.92244 | 156.21936 | 34731 ft | 531 kts | 45° |
| 2026-05-07 20:00 | 45.97706 | 156.31503 | 34731 ft | 531 kts | 45° |
| 2026-05-07 20:01 | 46.02400 | 156.39751 | 34731 ft | 531 kts | 45° |
| 2026-05-07 20:01 | 46.06304 | 156.46628 | 34730 ft | 531 kts | 45° |
| 2026-05-07 20:02 | 46.10987 | 156.54903 | 34731 ft | 531 kts | 45° |
| 2026-05-07 20:02 | 46.15667 | 156.63194 | 34732 ft | 531 kts | 45° |
| 2026-05-07 20:03 | 46.21097 | 156.72847 | 34730 ft | 532 kts | 46° |
| 2026-05-07 20:03 | 46.25763 | 156.81171 | 34731 ft | 531 kts | 46° |
| 2026-05-07 20:04 | 46.30400 | 156.89468 | 34731 ft | 531 kts | 46° |
| 2026-05-07 20:04 | 46.35072 | 156.97849 | 34731 ft | 532 kts | 46° |
| 2026-05-07 20:05 | 46.38923 | 157.04767 | 34731 ft | 533 kts | 47° |
| 2026-05-07 20:05 | 46.43592 | 157.13184 | 34731 ft | 535 kts | 47° |
| 2026-05-07 20:06 | 46.48253 | 157.21617 | 34731 ft | 535 kts | 48° |
| 2026-05-07 20:06 | 46.52890 | 157.30040 | 34731 ft | 535 kts | 48° |
| 2026-05-07 20:07 | 46.57563 | 157.38556 | 34731 ft | 535 kts | 48° |
| 2026-05-07 20:07 | 46.62186 | 157.47002 | 34731 ft | 535 kts | 48° |
| 2026-05-07 20:08 | 46.66832 | 157.55513 | 34731 ft | 535 kts | 48° |
| 2026-05-07 20:08 | 46.72235 | 157.65445 | 34731 ft | 535 kts | 49° |
| 2026-05-07 20:09 | 46.76115 | 157.72597 | 34730 ft | 536 kts | 49° |
| 2026-05-07 20:10 | 46.83807 | 157.86836 | 34732 ft | 536 kts | 49° |
| 2026-05-07 20:10 | 46.88441 | 157.95448 | 34732 ft | 536 kts | 49° |
| 2026-05-07 20:11 | 46.92274 | 158.02588 | 34733 ft | 533 kts | 49° |
| 2026-05-07 20:11 | 46.97564 | 158.12465 | 34733 ft | 525 kts | 49° |
| 2026-05-07 20:12 | 47.02029 | 158.20834 | 34733 ft | 520 kts | 49° |
| 2026-05-07 20:12 | 47.06457 | 158.29167 | 34732 ft | 516 kts | 49° |
| 2026-05-07 20:13 | 47.10877 | 158.37518 | 34731 ft | 516 kts | 49° |
| 2026-05-07 20:13 | 47.14549 | 158.44472 | 34732 ft | 516 kts | 49° |
| 2026-05-07 20:14 | 47.19673 | 158.54204 | 34732 ft | 516 kts | 49° |
| 2026-05-07 20:14 | 47.23331 | 158.61166 | 34732 ft | 516 kts | 49° |
| 2026-05-07 20:15 | 47.27727 | 158.69560 | 34730 ft | 516 kts | 50° |
| 2026-05-07 20:15 | 47.32109 | 158.77957 | 34731 ft | 516 kts | 50° |
| 2026-05-07 20:16 | 47.36468 | 158.86330 | 34731 ft | 517 kts | 50° |
| 2026-05-07 20:16 | 47.41581 | 158.96190 | 34729 ft | 519 kts | 50° |
| 2026-05-07 20:17 | 47.45247 | 159.03284 | 34729 ft | 523 kts | 50° |
| 2026-05-07 20:17 | 47.50400 | 159.13269 | 34729 ft | 528 kts | 50° |
| 2026-05-07 20:18 | 47.54136 | 159.20534 | 34730 ft | 531 kts | 50° |
| 2026-05-07 20:18 | 47.59334 | 159.30667 | 34731 ft | 530 kts | 50° |
| 2026-05-07 20:19 | 47.63788 | 159.39386 | 34730 ft | 530 kts | 50° |
| 2026-05-07 20:19 | 47.68226 | 159.48102 | 34731 ft | 531 kts | 50° |
| 2026-05-07 20:20 | 47.71946 | 159.55435 | 34731 ft | 531 kts | 50° |
| 2026-05-07 20:20 | 47.76375 | 159.64188 | 34731 ft | 531 kts | 50° |
| 2026-05-07 20:21 | 47.80806 | 159.72971 | 34730 ft | 531 kts | 51° |
| 2026-05-07 20:21 | 47.85952 | 159.83212 | 34731 ft | 531 kts | 51° |
| 2026-05-07 20:22 | 47.89624 | 159.90541 | 34731 ft | 531 kts | 51° |
| 2026-05-07 20:22 | 47.94048 | 159.99399 | 34731 ft | 531 kts | 51° |
| 2026-05-07 20:23 | 47.99198 | 160.09747 | 34731 ft | 530 kts | 51° |
| 2026-05-07 20:23 | 48.03599 | 160.18620 | 34731 ft | 530 kts | 51° |
| 2026-05-07 20:24 | 48.07964 | 160.27449 | 34732 ft | 531 kts | 51° |
| 2026-05-07 20:24 | 48.12356 | 160.36362 | 34731 ft | 531 kts | 51° |
| 2026-05-07 20:25 | 48.15550 | 160.42864 | 34730 ft | 531 kts | 51° |
| 2026-05-07 20:25 | 48.19906 | 160.51756 | 34732 ft | 531 kts | 51° |
| 2026-05-07 20:26 | 48.24280 | 160.60722 | 34732 ft | 531 kts | 51° |
| 2026-05-07 20:26 | 48.28624 | 160.69665 | 34729 ft | 531 kts | 52° |
| 2026-05-07 20:27 | 48.32851 | 160.78754 | 34731 ft | 532 kts | 53° |
| 2026-05-07 20:27 | 48.37754 | 160.89456 | 34729 ft | 534 kts | 53° |
| 2026-05-07 20:28 | 48.41285 | 160.97172 | 34730 ft | 536 kts | 53° |
| 2026-05-07 20:28 | 48.45542 | 161.06491 | 34730 ft | 541 kts | 53° |
| 2026-05-07 20:29 | 48.49795 | 161.15819 | 34729 ft | 541 kts | 53° |
| 2026-05-07 20:29 | 48.54061 | 161.25205 | 34732 ft | 542 kts | 53° |
| 2026-05-07 20:30 | 48.58297 | 161.34564 | 34732 ft | 542 kts | 53° |
| 2026-05-07 20:30 | 48.63264 | 161.45575 | 34733 ft | 541 kts | 53° |
| 2026-05-07 20:31 | 48.66790 | 161.53412 | 34730 ft | 541 kts | 53° |
| 2026-05-07 20:31 | 48.71027 | 161.62872 | 34730 ft | 541 kts | 53° |
| 2026-05-07 20:32 | 48.75232 | 161.72288 | 34729 ft | 542 kts | 54° |
| 2026-05-07 20:32 | 48.79447 | 161.81770 | 34731 ft | 542 kts | 54° |
| 2026-05-07 20:33 | 48.84359 | 161.92866 | 34731 ft | 542 kts | 54° |
| 2026-05-07 20:33 | 48.88557 | 162.02382 | 34732 ft | 542 kts | 54° |
| 2026-05-07 20:34 | 48.92053 | 162.10330 | 34731 ft | 542 kts | 54° |
| 2026-05-07 20:34 | 48.96240 | 162.19876 | 34731 ft | 542 kts | 54° |
| 2026-05-07 20:35 | 49.01106 | 162.31017 | 34730 ft | 539 kts | 53° |
| 2026-05-07 20:35 | 49.04536 | 162.38896 | 34732 ft | 537 kts | 53° |
| 2026-05-07 20:36 | 49.08634 | 162.48335 | 34732 ft | 534 kts | 53° |
| 2026-05-07 20:36 | 49.12743 | 162.57834 | 34733 ft | 531 kts | 53° |
| 2026-05-07 20:37 | 49.17447 | 162.68755 | 34728 ft | 530 kts | 54° |
| 2026-05-07 20:37 | 49.20822 | 162.76628 | 34730 ft | 530 kts | 54° |
| 2026-05-07 20:38 | 49.24857 | 162.86066 | 34730 ft | 530 kts | 54° |
| 2026-05-07 20:38 | 49.28890 | 162.95528 | 34731 ft | 530 kts | 54° |
| 2026-05-07 20:39 | 49.32906 | 163.04985 | 34731 ft | 531 kts | 54° |
| 2026-05-07 20:39 | 49.36935 | 163.14508 | 34731 ft | 533 kts | 54° |
| 2026-05-07 20:40 | 49.40976 | 163.24092 | 34730 ft | 534 kts | 53° |
| 2026-05-07 20:40 | 49.45704 | 163.35330 | 34730 ft | 535 kts | 54° |
| 2026-05-07 20:41 | 49.49046 | 163.43317 | 34730 ft | 534 kts | 54° |
| 2026-05-07 20:41 | 49.53093 | 163.53017 | 34733 ft | 535 kts | 53° |
| 2026-05-07 20:42 | 49.57097 | 163.62656 | 34731 ft | 534 kts | 53° |
| 2026-05-07 20:42 | 49.61078 | 163.72269 | 34731 ft | 535 kts | 54° |
| 2026-05-07 20:43 | 49.65084 | 163.81976 | 34730 ft | 535 kts | 54° |
| 2026-05-07 20:43 | 49.69732 | 163.93277 | 34731 ft | 535 kts | 54° |
| 2026-05-07 20:44 | 49.73066 | 164.01421 | 34731 ft | 535 kts | 54° |
| 2026-05-07 20:44 | 49.77026 | 164.11128 | 34728 ft | 536 kts | 54° |
| 2026-05-07 20:45 | 49.81670 | 164.22548 | 34731 ft | 535 kts | 54° |
| 2026-05-07 20:45 | 49.84953 | 164.30659 | 34729 ft | 535 kts | 54° |
| 2026-05-07 20:46 | 49.88914 | 164.40469 | 34731 ft | 536 kts | 54° |
| 2026-05-07 20:46 | 49.93517 | 164.51915 | 34730 ft | 535 kts | 54° |
| 2026-05-07 20:47 | 49.96798 | 164.60106 | 34732 ft | 534 kts | 54° |
| 2026-05-07 20:47 | 50.01372 | 164.71571 | 34727 ft | 536 kts | 56° |
| 2026-05-07 20:48 | 50.04636 | 164.79791 | 34731 ft | 536 kts | 56° |
| 2026-05-07 20:48 | 50.08532 | 164.89630 | 34729 ft | 535 kts | 55° |
| 2026-05-07 20:49 | 50.13098 | 165.01233 | 34731 ft | 538 kts | 55° |
| 2026-05-07 20:49 | 50.16339 | 165.09492 | 34731 ft | 538 kts | 55° |
| 2026-05-07 20:50 | 50.20237 | 165.19496 | 34731 ft | 539 kts | 55° |
| 2026-05-07 20:50 | 50.24743 | 165.31207 | 34731 ft | 539 kts | 55° |
| 2026-05-07 20:51 | 50.27952 | 165.39594 | 34732 ft | 539 kts | 55° |
| 2026-05-07 20:51 | 50.32445 | 165.51376 | 34732 ft | 540 kts | 55° |
| 2026-05-07 20:52 | 50.36276 | 165.61475 | 34731 ft | 539 kts | 55° |
| 2026-05-07 20:52 | 50.39483 | 165.69951 | 34730 ft | 540 kts | 56° |
| 2026-05-07 20:53 | 50.43293 | 165.80066 | 34730 ft | 540 kts | 56° |
| 2026-05-07 20:53 | 50.47107 | 165.90228 | 34731 ft | 539 kts | 56° |
| 2026-05-07 20:54 | 50.51526 | 166.02058 | 34731 ft | 540 kts | 56° |
| 2026-05-07 20:54 | 50.54694 | 166.10567 | 34732 ft | 539 kts | 56° |
| 2026-05-07 20:55 | 50.58478 | 166.20769 | 34744 ft | 539 kts | 56° |
| 2026-05-07 20:55 | 50.62886 | 166.32693 | 34796 ft | 539 kts | 56° |
| 2026-05-07 20:56 | 50.66024 | 166.41222 | 34840 ft | 540 kts | 56° |
| 2026-05-07 20:56 | 50.69769 | 166.51437 | 34873 ft | 539 kts | 56° |
| 2026-05-07 20:57 | 50.74136 | 166.63396 | 34889 ft | 539 kts | 56° |
| 2026-05-07 20:57 | 50.77250 | 166.71964 | 34893 ft | 539 kts | 57° |
| 2026-05-07 20:58 | 50.81579 | 166.83942 | 34900 ft | 540 kts | 57° |
| 2026-05-07 20:58 | 50.85300 | 166.94278 | 34899 ft | 541 kts | 57° |
| 2026-05-07 20:59 | 50.88397 | 167.02908 | 34899 ft | 541 kts | 56° |
| 2026-05-07 20:59 | 50.92749 | 167.15082 | 34898 ft | 544 kts | 56° |
| 2026-05-07 21:00 | 50.96465 | 167.25523 | 34899 ft | 546 kts | 55° |
| 2026-05-07 21:00 | 50.99586 | 167.34317 | 34900 ft | 547 kts | 55° |
| 2026-05-07 21:01 | 51.03313 | 167.44861 | 34898 ft | 550 kts | 55° |
| 2026-05-07 21:01 | 51.07064 | 167.55519 | 34899 ft | 551 kts | 55° |
| 2026-05-07 21:02 | 51.11434 | 167.67969 | 34897 ft | 552 kts | 56° |
| 2026-05-07 21:02 | 51.15140 | 167.78601 | 34898 ft | 551 kts | 56° |
| 2026-05-07 21:03 | 51.18256 | 167.87567 | 34899 ft | 552 kts | 56° |
| 2026-05-07 21:03 | 51.21961 | 167.98283 | 34901 ft | 552 kts | 56° |
| 2026-05-07 21:04 | 51.25661 | 168.09016 | 34900 ft | 552 kts | 56° |
| 2026-05-07 21:04 | 51.29972 | 168.21579 | 34901 ft | 552 kts | 56° |
| 2026-05-07 21:05 | 51.33036 | 168.30548 | 34900 ft | 551 kts | 56° |
| 2026-05-07 21:05 | 51.37312 | 168.43131 | 34900 ft | 551 kts | 56° |
| 2026-05-07 21:06 | 51.40345 | 168.52087 | 34900 ft | 551 kts | 56° |
| 2026-05-07 21:06 | 51.44002 | 168.62930 | 34899 ft | 552 kts | 56° |
| 2026-05-07 21:07 | 51.47640 | 168.73766 | 34899 ft | 552 kts | 56° |
| 2026-05-07 21:07 | 51.51879 | 168.86444 | 34899 ft | 552 kts | 57° |
| 2026-05-07 21:08 | 51.55501 | 168.97336 | 34900 ft | 552 kts | 57° |
| 2026-05-07 21:08 | 51.58504 | 169.06407 | 34899 ft | 553 kts | 56° |
| 2026-05-07 21:09 | 51.59723 | 169.10098 | 34900 ft | 553 kts | 56° |